Time;durP1;ratioP1;P1;durP2;ratioP2;P2;SDS_P1;SDS_P2;PMS_P1;PMS_P2;Temp;Humidity;BMP_temperature;BMP_pressure;BME280_temperature;BME280_humidity;BME280_pressure;Samples;Min_cycle;Max_cycle;Signal;HPM_P1;HPM_P2
2021/12/29 00:01:24;;;;;;;16.30;8.60;;;;;3.30;96788.60;;;;109334;1274;40753;-69
2021/12/29 00:03:54;;;;;;;15.40;8.00;;;;;3.30;96794.40;;;;109414;1274;42881;-70
2021/12/29 00:06:25;;;;;;;16.30;8.20;;;;;3.30;96804.00;;;;109256;1272;41123;-64
2021/12/29 00:08:55;;;;;;;17.60;8.20;;;;;3.30;96800.80;;;;109061;1274;41233;-67
2021/12/29 00:11:26;;;;;;;16.50;8.40;;;;;3.32;96799.60;;;;109152;1274;41163;-66
2021/12/29 00:13:55;;;;;;;16.30;8.10;;;;;3.34;96793.20;;;;109160;1275;41581;-66
2021/12/29 00:16:24;;;;;;;15.60;8.20;;;;;3.32;96791.60;;;;109259;1273;41138;-64
2021/12/29 00:18:53;;;;;;;16.50;7.60;;;;;3.38;96793.40;;;;108864;1274;41720;-65
2021/12/29 00:21:23;;;;;;;15.90;8.50;;;;;3.40;96794.20;;;;109104;1273;41380;-66
2021/12/29 00:23:58;;;;;;;16.10;8.60;;;;;3.40;96789.60;;;;109109;1274;41738;-64
2021/12/29 00:26:29;;;;;;;17.50;8.50;;;;;3.40;96789.00;;;;109167;1273;41249;-65
2021/12/29 00:28:59;;;;;;;16.70;8.20;;;;;3.40;96794.00;;;;109117;1274;41144;-69
2021/12/29 00:31:31;;;;;;;18.20;9.30;;;;;3.40;96794.60;;;;108944;1274;41217;-65
2021/12/29 00:34:20;;;;;;;19.20;10.20;;;;;3.40;96795.40;;;;108967;1274;41218;-63
2021/12/29 00:37:08;;;;;;;20.30;10.50;;;;;3.40;96791.20;;;;108954;1273;41408;-68
2021/12/29 00:39:56;;;;;;;20.20;10.70;;;;;3.40;96790.20;;;;109225;1273;41129;-66
2021/12/29 00:42:44;;;;;;;19.80;10.30;;;;;3.38;96795.00;;;;109203;1272;41603;-67
2021/12/29 00:45:35;;;;;;;19.10;9.70;;;;;3.36;96796.80;;;;109249;1273;41239;-70
2021/12/29 00:48:10;;;;;;;19.80;9.70;;;;;3.34;96796.60;;;;109118;1272;42288;-66
2021/12/29 00:50:39;;;;;;;17.70;9.20;;;;;3.40;96803.20;;;;108738;1272;560945;-65
2021/12/29 00:53:09;;;;;;;17.50;9.30;;;;;3.40;96815.20;;;;109214;1273;42444;-66
2021/12/29 00:55:39;;;;;;;17.40;8.90;;;;;3.40;96813.20;;;;108976;1274;41243;-67
2021/12/29 00:58:08;;;;;;;17.00;8.20;;;;;3.40;96815.20;;;;109176;1274;41144;-69
2021/12/29 01:00:40;;;;;;;15.10;8.00;;;;;3.40;96807.20;;;;109378;1273;41213;-66
2021/12/29 01:03:11;;;;;;;15.60;7.80;;;;;3.40;96806.60;;;;109096;1273;41232;-68
2021/12/29 01:05:40;;;;;;;15.40;7.50;;;;;3.40;96807.20;;;;109177;1272;41587;-67
2021/12/29 01:08:13;;;;;;;15.00;7.40;;;;;3.40;96805.80;;;;108943;1274;41613;-68
2021/12/29 01:10:42;;;;;;;15.80;7.80;;;;;3.40;96815.40;;;;109005;1274;41188;-68
2021/12/29 01:13:18;;;;;;;15.90;7.60;;;;;3.40;96804.60;;;;109203;1274;41177;-66
2021/12/29 01:16:08;;;;;;;16.50;7.80;;;;;3.40;96807.60;;;;109230;1273;41135;-69
2021/12/29 01:18:38;;;;;;;17.00;8.20;;;;;3.46;96803.20;;;;108942;1275;41598;-67
2021/12/29 01:21:07;;;;;;;14.60;7.70;;;;;3.48;96799.40;;;;109182;1274;41141;-69
2021/12/29 01:23:38;;;;;;;16.10;7.60;;;;;3.48;96798.00;;;;109269;1272;41138;-67
2021/12/29 01:26:08;;;;;;;14.30;7.60;;;;;3.50;96795.80;;;;108917;1274;41525;-67
2021/12/29 01:28:38;;;;;;;16.00;7.70;;;;;3.50;96795.40;;;;108998;1274;41883;-68
2021/12/29 01:31:07;;;;;;;14.80;6.90;;;;;3.50;96791.80;;;;108970;1275;41785;-65
2021/12/29 01:33:37;;;;;;;15.70;7.70;;;;;3.50;96787.80;;;;109223;1274;41206;-66
2021/12/29 01:36:06;;;;;;;15.90;7.70;;;;;3.50;96785.00;;;;109339;1274;42339;-70
2021/12/29 01:38:35;;;;;;;15.30;8.10;;;;;3.50;96778.20;;;;109236;1273;41189;-65
2021/12/29 01:41:05;;;;;;;15.00;7.80;;;;;3.50;96771.20;;;;109239;1273;41933;-65
2021/12/29 01:43:34;;;;;;;14.80;7.30;;;;;3.50;96771.80;;;;109144;1272;42664;-65
2021/12/29 01:46:04;;;;;;;16.90;7.80;;;;;3.50;96771.20;;;;109011;1273;41249;-64
2021/12/29 01:48:34;;;;;;;15.70;7.60;;;;;3.50;96774.60;;;;109293;1274;41437;-66
2021/12/29 01:51:04;;;;;;;16.20;7.60;;;;;3.50;96783.00;;;;109284;1273;41672;-64
2021/12/29 01:53:36;;;;;;;14.80;7.30;;;;;3.50;96782.60;;;;109069;1273;41740;-66
2021/12/29 01:56:05;;;;;;;15.50;7.10;;;;;3.50;96774.20;;;;108956;1274;41162;-66
2021/12/29 01:58:35;;;;;;;14.10;6.90;;;;;3.50;96774.60;;;;109082;1272;41707;-65
2021/12/29 02:01:06;;;;;;;15.30;6.90;;;;;3.50;96777.20;;;;109301;1272;41256;-65
2021/12/29 02:03:36;;;;;;;14.00;6.90;;;;;3.54;96767.20;;;;109024;1274;41129;-65
2021/12/29 02:06:06;;;;;;;16.30;8.70;;;;;3.50;96753.40;;;;109057;1274;41144;-68
2021/12/29 02:08:36;;;;;;;18.40;9.30;;;;;3.50;96751.80;;;;109079;1274;42091;-69
2021/12/29 02:11:07;;;;;;;17.90;8.60;;;;;3.50;96741.40;;;;108971;1274;42379;-67
2021/12/29 02:13:37;;;;;;;19.70;9.70;;;;;3.50;96737.00;;;;109184;1273;41408;-67
2021/12/29 02:16:07;;;;;;;17.60;9.50;;;;;3.50;96740.60;;;;109252;1274;41144;-69
2021/12/29 02:18:38;;;;;;;19.70;9.60;;;;;3.50;96741.20;;;;109311;1273;41131;-69
2021/12/29 02:21:08;;;;;;;20.40;10.20;;;;;3.50;96739.40;;;;109287;1274;41135;-65
2021/12/29 02:23:54;;;;;;;20.20;10.30;;;;;3.40;96730.80;;;;109255;1273;41157;-67
2021/12/29 02:26:24;;;;;;;18.50;9.00;;;;;3.40;96732.40;;;;109294;1274;41122;-70
2021/12/29 02:28:55;;;;;;;17.70;9.00;;;;;3.40;96736.20;;;;109241;1273;41243;-68
2021/12/29 02:31:25;;;;;;;17.50;9.20;;;;;3.40;96740.20;;;;109239;1273;41144;-69
2021/12/29 02:33:56;;;;;;;14.80;7.40;;;;;3.40;96744.00;;;;109154;1272;41174;-67
2021/12/29 02:36:26;;;;;;;;;;;;;3.40;96756.60;;;;109189;1273;41163;-65
2021/12/29 02:38:57;;;;;;;17.30;8.00;;;;;3.40;96760.80;;;;108909;1274;41544;-68
2021/12/29 02:41:30;;;;;;;14.90;7.10;;;;;3.40;96757.60;;;;108964;1274;41826;-68
2021/12/29 02:44:01;;;;;;;14.40;7.50;;;;;3.40;96753.80;;;;109119;1272;41326;-66
2021/12/29 02:46:32;;;;;;;14.20;6.50;;;;;3.40;96750.00;;;;109191;1274;41133;-67
2021/12/29 02:49:02;;;;;;;14.20;6.60;;;;;3.44;96750.80;;;;109246;1273;42295;-68
2021/12/29 02:51:33;;;;;;;14.70;7.40;;;;;3.48;96748.60;;;;108974;1274;42275;-65
2021/12/29 02:54:04;;;;;;;13.50;6.80;;;;;3.50;96742.80;;;;109315;1274;41118;-69
2021/12/29 02:56:35;;;;;;;14.90;7.70;;;;;3.50;96740.00;;;;109329;1272;41905;-69
2021/12/29 02:59:05;;;;;;;16.30;7.50;;;;;3.50;96734.20;;;;109005;1272;41323;-68
2021/12/29 03:01:35;;;;;;;15.40;7.60;;;;;3.50;96735.80;;;;109018;1272;41236;-68
2021/12/29 03:04:06;;;;;;;;;;;;;3.50;96727.60;;;;109293;1271;41242;-68
2021/12/29 03:06:36;;;;;;;14.60;6.70;;;;;3.50;96731.80;;;;109153;1273;41204;-69
2021/12/29 03:09:13;;;;;;;13.80;7.00;;;;;3.50;96723.80;;;;109064;1275;41136;-65
2021/12/29 03:11:44;;;;;;;14.00;6.70;;;;;3.50;96727.20;;;;109088;1274;41140;-67
2021/12/29 03:14:14;;;;;;;;;;;;;3.50;96720.20;;;;109024;1272;42162;-68
2021/12/29 03:16:44;;;;;;;15.70;7.30;;;;;3.50;96716.80;;;;108913;1274;41128;-68
2021/12/29 03:19:15;;;;;;;15.10;7.80;;;;;3.50;96717.40;;;;108968;1274;41246;-66
2021/12/29 03:21:45;;;;;;;15.60;8.10;;;;;3.50;96713.80;;;;109011;1272;41139;-66
2021/12/29 03:24:18;;;;;;;15.50;7.50;;;;;3.50;96708.80;;;;109374;1272;41707;-70
2021/12/29 03:26:49;;;;;;;16.30;7.40;;;;;3.60;96712.60;;;;109233;1274;41929;-70
2021/12/29 03:29:19;;;;;;;17.00;8.10;;;;;3.60;96707.00;;;;109298;1273;41145;-66
2021/12/29 03:31:50;;;;;;;16.40;8.20;;;;;3.60;96705.00;;;;109318;1272;41246;-67
2021/12/29 03:34:21;;;;;;;15.70;7.60;;;;;3.60;96701.40;;;;109144;1273;41191;-67
2021/12/29 03:36:51;;;;;;;16.40;7.60;;;;;3.60;96704.80;;;;109210;1272;41236;-65
2021/12/29 03:39:23;;;;;;;16.00;7.40;;;;;3.60;96705.20;;;;109249;1273;41876;-64
2021/12/29 03:41:53;;;;;;;15.30;7.10;;;;;3.60;96701.00;;;;108950;1274;41193;-65
2021/12/29 03:44:23;;;;;;;15.90;7.80;;;;;3.64;96700.00;;;;108884;1274;41172;-65
2021/12/29 03:46:53;;;;;;;13.70;6.90;;;;;3.66;96693.60;;;;108959;1274;41147;-66
2021/12/29 03:49:23;;;;;;;15.40;7.80;;;;;3.66;96686.60;;;;108893;1274;41242;-67
2021/12/29 03:51:53;;;;;;;16.10;7.70;;;;;3.68;96686.60;;;;108905;1274;41589;-66
2021/12/29 03:54:23;;;;;;;15.70;8.60;;;;;3.70;96683.40;;;;108911;1274;41170;-65
2021/12/29 03:56:54;;;;;;;16.80;8.60;;;;;3.66;96683.40;;;;108962;1273;41145;-64
2021/12/29 03:59:23;;;;;;;16.00;8.20;;;;;3.60;96678.60;;;;108999;1274;41256;-66
2021/12/29 04:01:54;;;;;;;19.90;9.00;;;;;3.60;96673.80;;;;108923;1274;41152;-64
2021/12/29 04:04:24;;;;;;;18.30;9.10;;;;;3.62;96671.20;;;;109066;1274;41436;-66
2021/12/29 04:06:54;;;;;;;18.40;8.70;;;;;3.60;96671.80;;;;108937;1274;41933;-67
2021/12/29 04:09:24;;;;;;;18.20;9.30;;;;;3.60;96663.40;;;;109249;1275;41218;-65
2021/12/29 04:11:53;;;;;;;20.90;8.80;;;;;3.60;96668.00;;;;108971;1274;41329;-66
2021/12/29 04:14:26;;;;;;;18.70;8.90;;;;;3.60;96664.80;;;;108913;1272;41196;-68
2021/12/29 04:16:57;;;;;;;16.10;7.60;;;;;3.60;96662.40;;;;108952;1274;41934;-66
2021/12/29 04:19:40;;;;;;;15.00;7.60;;;;;3.60;96663.80;;;;109206;1273;41639;-68
2021/12/29 04:22:10;;;;;;;15.70;8.00;;;;;3.60;96659.20;;;;109000;1274;41230;-69
2021/12/29 04:24:40;;;;;;;14.60;7.30;;;;;3.60;96657.40;;;;108970;1274;41937;-65
2021/12/29 04:27:11;;;;;;;13.90;6.50;;;;;3.62;96658.40;;;;108967;1274;41285;-67
2021/12/29 04:29:41;;;;;;;13.40;6.80;;;;;3.66;96658.60;;;;108996;1274;41721;-68
2021/12/29 04:32:10;;;;;;;12.60;6.50;;;;;3.70;96663.20;;;;108942;1275;41148;-69
2021/12/29 04:34:41;;;;;;;14.30;6.90;;;;;3.70;96658.60;;;;108978;1272;41301;-71
2021/12/29 04:37:10;;;;;;;12.60;6.20;;;;;3.70;96656.80;;;;108970;1274;41144;-65
2021/12/29 04:39:40;;;;;;;12.60;6.10;;;;;3.70;96653.40;;;;108831;1276;41154;-67
2021/12/29 04:42:10;;;;;;;12.30;6.30;;;;;3.70;96652.80;;;;109175;1271;41148;-65
2021/12/29 04:44:39;;;;;;;11.30;5.60;;;;;3.70;96651.60;;;;109023;1274;41151;-67
2021/12/29 04:47:11;;;;;;;13.00;6.40;;;;;3.70;96647.20;;;;109103;1273;41627;-66
2021/12/29 04:49:43;;;;;;;13.00;5.90;;;;;3.68;96647.00;;;;109274;1273;41242;-68
2021/12/29 04:52:13;;;;;;;12.20;5.60;;;;;3.60;96645.60;;;;109299;1273;41140;-68
2021/12/29 04:54:43;;;;;;;12.50;5.80;;;;;3.60;96641.60;;;;109237;1273;42307;-67
2021/12/29 04:57:15;;;;;;;11.00;5.50;;;;;3.64;96641.60;;;;109254;1272;41594;-63
2021/12/29 04:59:44;;;;;;;11.60;5.10;;;;;3.70;96643.00;;;;109370;1273;41651;-68
2021/12/29 05:02:14;;;;;;;11.80;5.20;;;;;3.68;96643.60;;;;109309;1273;42622;-68
2021/12/29 05:04:56;;;;;;;10.80;5.00;;;;;3.70;96644.60;;;;109201;1273;42337;-65
2021/12/29 05:10:15;;;;;;;13.70;6.20;;;;;3.70;96646.20;;;;109248;1274;41602;-65
2021/12/29 05:12:45;;;;;;;13.70;6.40;;;;;3.70;96646.60;;;;109095;1273;41150;-65
2021/12/29 05:15:15;;;;;;;18.90;9.30;;;;;3.70;96654.60;;;;108881;1274;41145;-64
2021/12/29 05:17:44;;;;;;;18.90;9.70;;;;;3.70;96654.00;;;;109245;1273;41141;-65
2021/12/29 05:20:14;;;;;;;20.10;10.60;;;;;3.60;96644.00;;;;109299;1274;41509;-68
2021/12/29 05:22:44;;;;;;;19.70;10.40;;;;;3.60;96642.00;;;;108897;1274;41623;-65
2021/12/29 05:25:13;;;;;;;20.40;10.20;;;;;3.52;96632.40;;;;108828;1275;41710;-67
2021/12/29 05:27:43;;;;;;;19.40;9.90;;;;;3.50;96626.20;;;;109126;1274;41145;-65
2021/12/29 05:30:13;;;;;;;18.10;9.40;;;;;3.46;96624.20;;;;109326;1274;41272;-67
2021/12/29 05:32:42;;;;;;;17.90;9.10;;;;;3.40;96621.00;;;;109218;1274;41777;-67
2021/12/29 05:35:12;;;;;;;18.20;8.60;;;;;3.40;96620.80;;;;109085;1275;41256;-65
2021/12/29 05:37:42;;;;;;;19.70;9.50;;;;;3.40;96622.20;;;;109400;1273;41370;-68
2021/12/29 05:40:12;;;;;;;19.50;10.30;;;;;3.36;96621.80;;;;109280;1273;42180;-65
2021/12/29 05:42:43;;;;;;;21.40;11.00;;;;;3.30;96624.60;;;;109008;1273;42388;-65
2021/12/29 05:45:14;;;;;;;20.20;11.00;;;;;3.20;96622.20;;;;109297;1271;41149;-65
2021/12/29 05:47:43;;;;;;;22.00;11.70;;;;;3.10;96624.40;;;;109348;1271;41751;-64
2021/12/29 05:50:17;;;;;;;21.50;11.20;;;;;3.10;96619.20;;;;109365;1271;41138;-67
2021/12/29 05:52:46;;;;;;;20.90;11.10;;;;;3.00;96622.40;;;;109368;1273;41246;-68
2021/12/29 05:55:15;;;;;;;22.20;11.50;;;;;3.00;96625.20;;;;108885;1274;41596;-65
2021/12/29 05:57:44;;;;;;;18.50;10.40;;;;;2.90;96625.20;;;;109287;1274;41916;-65
2021/12/29 06:00:17;;;;;;;20.40;10.60;;;;;2.90;96626.20;;;;109188;1274;41604;-65
2021/12/29 06:02:47;;;;;;;17.30;9.60;;;;;2.90;96624.20;;;;109235;1272;42061;-65
2021/12/29 06:05:16;;;;;;;16.30;8.50;;;;;2.90;96633.80;;;;109229;1274;41144;-66
2021/12/29 06:07:47;;;;;;;20.80;8.50;;;;;2.82;96635.20;;;;108914;1274;41325;-66
2021/12/29 06:10:16;;;;;;;16.70;8.60;;;;;2.82;96642.80;;;;109230;1275;41177;-64
2021/12/29 06:12:46;;;;;;;15.80;8.00;;;;;2.80;96646.80;;;;109231;1274;41144;-67
2021/12/29 06:15:16;;;;;;;16.10;7.30;;;;;2.82;96647.80;;;;109300;1273;41171;-68
2021/12/29 06:17:45;;;;;;;17.20;8.80;;;;;2.90;96654.20;;;;109259;1273;41142;-67
2021/12/29 06:20:15;;;;;;;18.30;9.00;;;;;2.90;96649.60;;;;109279;1274;42441;-66
2021/12/29 06:22:45;;;;;;;16.20;8.10;;;;;2.90;96651.40;;;;109244;1274;41132;-66
2021/12/29 06:25:16;;;;;;;15.90;7.80;;;;;2.90;96657.20;;;;109274;1272;41599;-67
2021/12/29 06:27:46;;;;;;;16.80;7.80;;;;;2.90;96662.60;;;;109479;1274;41606;-66
2021/12/29 06:30:16;;;;;;;15.00;7.00;;;;;2.90;96666.20;;;;109220;1274;41895;-67
2021/12/29 06:32:45;;;;;;;14.90;7.50;;;;;2.90;96667.40;;;;108988;1275;41475;-69
2021/12/29 06:35:15;;;;;;;15.30;7.70;;;;;2.90;96665.00;;;;109389;1274;41186;-67
2021/12/29 06:37:44;;;;;;;14.30;7.40;;;;;2.96;96669.40;;;;109082;1275;42205;-67
2021/12/29 06:40:15;;;;;;;15.10;7.20;;;;;3.00;96665.40;;;;109167;1273;41236;-66
2021/12/29 06:42:44;;;;;;;15.60;7.50;;;;;3.00;96661.60;;;;109282;1275;41154;-66
2021/12/29 06:45:14;;;;;;;18.90;9.00;;;;;3.00;96655.40;;;;109110;1274;41930;-70
2021/12/29 06:47:43;;;;;;;18.30;8.80;;;;;3.00;96653.40;;;;109062;1272;41128;-67
2021/12/29 06:50:12;;;;;;;19.80;9.60;;;;;3.00;96650.40;;;;109311;1272;41705;-66
2021/12/29 06:52:42;;;;;;;17.80;9.20;;;;;3.00;96649.20;;;;109360;1271;41918;-69
2021/12/29 06:55:11;;;;;;;17.70;8.70;;;;;3.00;96658.80;;;;109130;1274;41596;-66
2021/12/29 06:57:40;;;;;;;17.50;8.00;;;;;3.00;96667.60;;;;109187;1273;41594;-68
2021/12/29 07:00:10;;;;;;;16.00;7.30;;;;;3.00;96670.80;;;;109174;1274;41993;-70
2021/12/29 07:02:40;;;;;;;13.70;6.70;;;;;3.10;96670.80;;;;108998;1274;42309;-65
2021/12/29 07:05:09;;;;;;;14.50;7.30;;;;;3.10;96672.60;;;;109171;1274;41256;-66
2021/12/29 07:07:38;;;;;;;16.00;8.30;;;;;3.20;96676.00;;;;108973;1272;41270;-67
2021/12/29 07:10:08;;;;;;;17.90;8.70;;;;;3.20;96679.00;;;;108978;1272;42439;-65
2021/12/29 07:12:37;;;;;;;15.90;8.20;;;;;3.20;96678.00;;;;109279;1273;41145;-69
2021/12/29 07:15:07;;;;;;;16.00;7.50;;;;;3.28;96684.40;;;;109238;1273;42975;-68
2021/12/29 07:17:36;;;;;;;13.90;6.90;;;;;3.38;96677.40;;;;109024;1274;41810;-66
2021/12/29 07:20:06;;;;;;;15.20;7.20;;;;;3.48;96678.80;;;;109052;1273;41795;-66
2021/12/29 07:22:35;;;;;;;15.70;8.00;;;;;3.58;96676.40;;;;109220;1274;41145;-67
2021/12/29 07:25:05;;;;;;;17.90;8.80;;;;;3.70;96676.60;;;;109097;1274;41116;-71
2021/12/29 07:27:34;;;;;;;17.30;8.60;;;;;3.80;96682.20;;;;108880;1274;41337;-68
2021/12/29 07:30:04;;;;;;;16.50;8.50;;;;;4.00;96676.60;;;;108950;1274;42470;-67
2021/12/29 07:32:33;;;;;;;16.50;8.40;;;;;4.10;96678.80;;;;109019;1273;41284;-67
2021/12/29 07:35:03;;;;;;;17.90;9.00;;;;;4.30;96676.20;;;;109224;1273;42489;-68
2021/12/29 07:37:32;;;;;;;19.90;9.10;;;;;4.50;96677.00;;;;108982;1271;42069;-68
2021/12/29 07:40:06;;;;;;;19.10;8.80;;;;;4.66;96677.60;;;;109209;1275;41420;-67
2021/12/29 07:42:37;;;;;;;18.20;8.60;;;;;4.88;96675.80;;;;109010;1274;41255;-69
2021/12/29 07:45:08;;;;;;;18.70;8.70;;;;;5.12;96676.80;;;;109216;1273;41132;-69
2021/12/29 07:47:43;;;;;;;19.60;9.80;;;;;5.42;96669.00;;;;108960;1274;41150;-67
2021/12/29 07:50:16;;;;;;;19.30;9.90;;;;;5.72;96661.00;;;;108976;1274;41145;-68
2021/12/29 07:53:02;;;;;;;19.40;10.10;;;;;5.96;96648.80;;;;109065;1275;41614;-66
2021/12/29 07:55:31;;;;;;;26.00;10.30;;;;;6.10;96645.40;;;;109180;1274;41937;-69
2021/12/29 07:58:00;;;;;;;18.20;9.40;;;;;6.40;96650.80;;;;109275;1274;41249;-68
2021/12/29 08:00:29;;;;;;;18.10;9.60;;;;;6.60;96664.60;;;;109192;1274;42317;-67
2021/12/29 08:02:58;;;;;;;25.10;13.40;;;;;6.70;96669.80;;;;109016;1275;42829;-66
2021/12/29 08:05:28;;;;;;;24.10;12.90;;;;;6.70;96675.00;;;;109098;1275;42102;-67
2021/12/29 08:07:57;;;;;;;24.30;12.40;;;;;6.60;96666.80;;;;109031;1274;41145;-66
2021/12/29 08:10:27;;;;;;;25.30;13.10;;;;;6.60;96664.00;;;;109042;1273;41220;-67
2021/12/29 08:12:57;;;;;;;24.20;12.90;;;;;6.52;96658.20;;;;109301;1274;41244;-68
2021/12/29 08:15:29;;;;;;;28.40;15.00;;;;;6.50;96656.60;;;;109003;1274;41735;-69
2021/12/29 08:18:04;;;;;;;27.10;15.20;;;;;6.50;96659.40;;;;108985;1274;41116;-68
2021/12/29 08:20:35;;;;;;;30.60;16.00;;;;;6.40;96658.00;;;;108839;1274;41872;-71
2021/12/29 08:23:08;;;;;;;31.60;16.40;;;;;6.30;96654.20;;;;109302;1274;41362;-68
2021/12/29 08:25:38;;;;;;;26.20;14.50;;;;;6.20;96655.80;;;;109288;1273;41634;-70
2021/12/29 08:28:07;;;;;;;27.40;14.60;;;;;6.10;96655.40;;;;109291;1275;41157;-69
2021/12/29 08:30:37;;;;;;;29.60;14.80;;;;;6.06;96658.40;;;;109261;1273;41658;-69
2021/12/29 08:33:06;;;;;;;30.10;16.50;;;;;6.00;96658.20;;;;109261;1272;41519;-71
2021/12/29 08:35:36;;;;;;;28.70;14.40;;;;;5.90;96656.60;;;;109053;1272;41583;-67
2021/12/29 08:38:05;;;;;;;27.50;14.50;;;;;5.90;96655.80;;;;109003;1274;41329;-69
2021/12/29 08:40:35;;;;;;;29.90;16.00;;;;;5.90;96646.00;;;;109021;1274;41144;-69
2021/12/29 08:43:04;;;;;;;29.00;15.40;;;;;5.80;96638.20;;;;109283;1274;41128;-69
2021/12/29 08:45:34;;;;;;;28.40;14.70;;;;;5.80;96637.00;;;;109211;1274;41631;-70
2021/12/29 08:48:05;;;;;;;26.20;13.50;;;;;5.88;96639.60;;;;109306;1272;41880;-70
2021/12/29 08:50:34;;;;;;;26.50;13.40;;;;;5.90;96635.60;;;;108812;1274;448945;-67
2021/12/29 08:53:05;;;;;;;26.40;12.70;;;;;5.90;96634.40;;;;108978;1274;41981;-72
2021/12/29 08:55:35;;;;;;;23.10;12.30;;;;;5.96;96637.00;;;;109179;1274;41216;-73
2021/12/29 08:58:06;;;;;;;18.50;10.40;;;;;6.00;96644.20;;;;109133;1274;41137;-74
2021/12/29 09:00:38;;;;;;;25.30;12.10;;;;;6.10;96643.20;;;;109031;1274;41138;-72
2021/12/29 09:03:08;;;;;;;23.00;11.30;;;;;6.20;96642.00;;;;109090;1275;41471;-72
2021/12/29 09:05:37;;;;;;;17.70;8.70;;;;;6.20;96642.20;;;;109091;1275;41779;-73
2021/12/29 09:08:06;;;;;;;13.60;7.20;;;;;6.20;96647.60;;;;108999;1275;41150;-76
2021/12/29 09:10:36;;;;;;;12.70;6.40;;;;;6.30;96647.40;;;;108984;1274;41240;-74
2021/12/29 09:13:05;;;;;;;15.20;6.90;;;;;6.46;96642.60;;;;108959;1274;41253;-70
2021/12/29 09:15:35;;;;;;;14.30;7.10;;;;;6.70;96636.80;;;;109327;1271;41946;-73
2021/12/29 09:18:04;;;;;;;13.30;6.60;;;;;6.96;96632.20;;;;109288;1272;41369;-74
2021/12/29 09:20:36;;;;;;;15.30;7.40;;;;;7.30;96631.60;;;;109296;1273;42008;-71
2021/12/29 09:23:09;;;;;;;15.60;8.10;;;;;7.70;96633.80;;;;109057;1275;41125;-69
2021/12/29 09:25:39;;;;;;;15.20;8.50;;;;;7.94;96630.00;;;;109105;1275;41181;-73
2021/12/29 09:28:10;;;;;;;15.00;6.80;;;;;8.20;96628.40;;;;109268;1274;42105;-70
2021/12/29 09:30:40;;;;;;;18.50;9.10;;;;;8.48;96628.20;;;;109081;1275;41182;-71
2021/12/29 09:33:10;;;;;;;23.30;11.80;;;;;8.88;96624.40;;;;109091;1275;41133;-70
2021/12/29 09:35:39;;;;;;;25.20;12.40;;;;;9.34;96622.00;;;;108852;1275;41334;-69
2021/12/29 09:38:09;;;;;;;24.20;11.10;;;;;9.88;96616.40;;;;109295;1273;41172;-70
2021/12/29 09:40:39;;;;;;;22.50;11.70;;;;;10.60;96609.20;;;;108969;1273;41262;-69
2021/12/29 09:43:08;;;;;;;21.30;11.20;;;;;11.58;96614.20;;;;109080;1275;41633;-67
2021/12/29 09:45:39;;;;;;;18.40;10.40;;;;;12.40;96620.20;;;;109159;1275;41564;-69
2021/12/29 09:48:08;;;;;;;;;;;;;12.50;96622.60;;;;109242;1274;41798;-69
2021/12/29 09:50:38;;;;;;;17.00;8.90;;;;;12.42;96611.60;;;;109053;1275;41144;-71
2021/12/29 09:53:07;;;;;;;14.80;7.50;;;;;12.20;96603.00;;;;109048;1272;41610;-70
2021/12/29 09:55:38;;;;;;;15.70;8.90;;;;;12.10;96601.00;;;;109120;1273;41593;-71
2021/12/29 09:58:08;;;;;;;15.70;8.30;;;;;11.96;96595.00;;;;108990;1275;43029;-71
2021/12/29 10:00:44;;;;;;;16.60;8.20;;;;;11.72;96593.00;;;;109207;1275;41592;-71
2021/12/29 10:03:15;;;;;;;16.50;8.10;;;;;11.50;96578.80;;;;109129;1275;41499;-71
2021/12/29 10:05:46;;;;;;;16.90;8.40;;;;;11.40;96578.00;;;;109148;1274;41151;-71
2021/12/29 10:08:30;;;;;;;16.50;8.90;;;;;11.40;96582.40;;;;109115;1275;41145;-69
2021/12/29 10:11:03;;;;;;;16.40;8.30;;;;;11.50;96585.60;;;;109040;1275;42372;-68
2021/12/29 10:13:34;;;;;;;14.60;6.90;;;;;11.60;96595.20;;;;109046;1274;41292;-68
2021/12/29 10:16:18;;;;;;;14.20;7.30;;;;;11.60;96593.40;;;;109184;1274;42594;-70
2021/12/29 10:18:53;;;;;;;15.10;7.90;;;;;11.60;96595.60;;;;109213;1275;41243;-70
2021/12/29 10:21:25;;;;;;;16.30;7.90;;;;;11.52;96589.20;;;;109084;1274;41505;-69
2021/12/29 10:23:57;;;;;;;15.80;7.90;;;;;11.40;96587.40;;;;109104;1274;41147;-70
2021/12/29 10:26:44;;;;;;;15.90;8.20;;;;;11.10;96584.60;;;;109095;1275;41056;-69
2021/12/29 10:29:17;;;;;;;16.10;7.80;;;;;10.92;96581.80;;;;109072;1274;41605;-70
2021/12/29 10:31:57;;;;;;;15.10;7.30;;;;;10.80;96583.40;;;;109153;1275;41148;-70
2021/12/29 10:34:29;;;;;;;14.60;6.70;;;;;10.70;96580.20;;;;109154;1275;41144;-70
2021/12/29 10:37:05;;;;;;;13.30;6.80;;;;;10.60;96584.00;;;;109116;1275;41977;-71
2021/12/29 10:39:37;;;;;;;13.60;6.70;;;;;10.44;96578.80;;;;109162;1275;41126;-72
2021/12/29 10:42:28;;;;;;;13.40;6.30;;;;;10.30;96576.80;;;;109093;1275;41141;-71
2021/12/29 10:45:00;;;;;;;15.90;6.40;;;;;10.30;96574.80;;;;109040;1274;41129;-69
2021/12/29 10:47:37;;;;;;;14.40;6.90;;;;;10.30;96573.40;;;;108938;1275;41138;-70
2021/12/29 10:50:14;;;;;;;14.40;6.50;;;;;10.20;96573.60;;;;109117;1274;41131;-70
2021/12/29 10:52:47;;;;;;;13.10;6.80;;;;;10.10;96572.20;;;;109092;1274;41141;-70
2021/12/29 10:55:31;;;;;;;12.90;6.00;;;;;10.00;96570.20;;;;109103;1275;41614;-72
2021/12/29 10:58:13;;;;;;;12.20;5.40;;;;;10.00;96566.60;;;;109024;1275;41259;-72
2021/12/29 11:01:01;;;;;;;11.90;5.60;;;;;9.92;96564.40;;;;109101;1275;41178;-68
2021/12/29 11:03:31;;;;;;;13.30;6.40;;;;;9.90;96560.00;;;;109031;1275;41709;-69
2021/12/29 11:06:02;;;;;;;12.40;6.30;;;;;9.92;96558.40;;;;109088;1275;41146;-69
2021/12/29 11:08:49;;;;;;;11.70;5.90;;;;;9.90;96556.80;;;;109126;1275;41126;-70
2021/12/29 11:11:20;;;;;;;11.70;5.70;;;;;9.90;96554.40;;;;109095;1272;41645;-69
2021/12/29 11:13:49;;;;;;;13.60;6.00;;;;;9.84;96555.00;;;;109068;1275;41252;-71
2021/12/29 11:16:18;;;;;;;13.00;6.00;;;;;9.90;96554.00;;;;109096;1275;41250;-70
2021/12/29 11:18:51;;;;;;;11.60;5.20;;;;;10.00;96555.40;;;;109104;1275;41141;-70
2021/12/29 11:21:30;;;;;;;12.90;5.10;;;;;10.10;96554.20;;;;109090;1275;41145;-71
2021/12/29 11:24:26;;;;;;;11.20;5.20;;;;;10.10;96551.60;;;;109083;1275;41231;-70
2021/12/29 11:26:58;;;;;;;10.60;5.50;;;;;10.20;96555.60;;;;109074;1275;41580;-68
2021/12/29 11:29:27;;;;;;;10.90;5.20;;;;;10.40;96545.00;;;;109099;1275;41154;-71
2021/12/29 11:32:07;;;;;;;12.30;6.00;;;;;10.80;96551.00;;;;109068;1274;41414;-71
2021/12/29 11:34:36;;;;;;;12.90;6.00;;;;;11.10;96545.40;;;;109084;1275;41248;-69
2021/12/29 11:37:09;;;;;;;13.20;6.20;;;;;11.40;96536.60;;;;109112;1274;41129;-67
2021/12/29 11:39:43;;;;;;;12.30;6.00;;;;;11.60;96531.60;;;;109104;1275;41700;-69
2021/12/29 11:42:13;;;;;;;12.70;5.90;;;;;11.80;96534.80;;;;109294;1275;41383;-70
2021/12/29 11:44:42;;;;;;;13.30;6.40;;;;;11.90;96531.60;;;;109284;1274;41174;-69
2021/12/29 11:47:13;;;;;;;13.10;6.00;;;;;11.90;96535.20;;;;109270;1273;41798;-70
2021/12/29 11:49:42;;;;;;;12.80;6.70;;;;;11.90;96531.40;;;;109093;1274;41138;-70
2021/12/29 11:52:32;;;;;;;15.00;6.80;;;;;12.00;96524.80;;;;108939;1274;41444;-69
2021/12/29 11:55:17;;;;;;;13.60;6.70;;;;;12.04;96517.40;;;;109033;1275;41592;-69
2021/12/29 11:57:46;;;;;;;11.90;6.10;;;;;12.30;96518.00;;;;109229;1274;41379;-68
2021/12/29 12:00:21;;;;;;;12.70;6.40;;;;;12.48;96516.20;;;;109086;1275;42020;-69
2021/12/29 12:02:52;;;;;;;14.50;6.60;;;;;12.70;96512.20;;;;109139;1274;42355;-67
2021/12/29 12:05:33;;;;;;;13.90;6.60;;;;;13.00;96514.80;;;;109131;1275;41785;-69
2021/12/29 12:08:08;;;;;;;12.70;6.20;;;;;13.38;96506.00;;;;109314;1275;41444;-67
2021/12/29 12:10:38;;;;;;;11.70;5.90;;;;;13.68;96505.00;;;;109395;1275;41812;-66
2021/12/29 12:13:24;;;;;;;14.20;6.40;;;;;13.96;96500.60;;;;109388;1274;41392;-69
2021/12/29 12:16:14;;;;;;;12.40;6.20;;;;;14.20;96498.20;;;;109291;1274;41230;-68
2021/12/29 12:18:50;;;;;;;12.80;5.80;;;;;14.30;96509.20;;;;109303;1274;41135;-70
2021/12/29 12:21:40;;;;;;;12.30;5.50;;;;;14.50;96514.60;;;;109406;1273;41250;-68
2021/12/29 12:24:16;;;;;;;11.90;5.70;;;;;14.50;96517.80;;;;109370;1274;41166;-67
2021/12/29 12:26:54;;;;;;;12.10;5.90;;;;;14.40;96521.20;;;;109365;1272;41625;-69
2021/12/29 12:29:26;;;;;;;13.30;6.50;;;;;14.34;96525.00;;;;109366;1273;41246;-68
2021/12/29 12:32:17;;;;;;;14.70;7.70;;;;;14.30;96524.80;;;;109419;1273;42373;-69